XYMY weather

CLOSED Victoria STOLport
Montreal, Quebec, Canada

Public forecast

Using degrees Celsius for public forecast. Weather courtesy of forecast.io.

METAR (pilot weather report)

Closest report is MontrĂ©al / Saint-Hubert Airport, 5.9 nm (11.0 km) ENE. Retrieved 2019/07/20 17:00 UTC (28 minutes ago):

CYHU 201700Z AUTO 24013KT 9SM CLR 31/24 A2970 RMK SLP060 DENSITY ALT 2100FT

TAF (pilot weather forecast)

Closest forecast is MontrĂ©al / Saint-Hubert Airport, 5.9 nm (11.0 km) ENE. Retrieved 2019/07/20 12:45 UTC (5 hours ago):

TAF TAF CYHU 201141Z 2012/2112 24012KT P6SM FEW240 FM201600 23012G22KT P6SM BKN040 TEMPO 2016/2019 P6SM -SHRA FM201900 27015G25KT P6SM BKN030 TEMPO 2019/2023 6SM -SHRA BR BKN015 PROB30 2019/2023 2SM TSRA BR BKN008 BKN020CB FM202300 27010G20KT P6SM SCT015 TEMPO 2023/2102 BKN015 PROB30 2023/2102 BKN008 FM210200 26007KT P6SM FEW100 FM210500 24005KT P6SM BKN140 FM210700 25007KT P6SM -SHRA SCT040 BKN100 RMK FCST BASED ON AUTO OBS. NXT FCST BY 201800Z